sensor_id;sensor_type;location;lat;lon;timestamp;P1;P2;P0
77692;PMS5003;66984;47.404;18.836;2023-01-15T00:00:14;34.75;28.00;17.75
77692;PMS5003;66984;47.404;18.836;2023-01-15T00:01:22;33.00;27.50;17.00
77692;PMS5003;66984;47.404;18.836;2023-01-15T00:02:33;31.00;26.00;16.00
77692;PMS5003;66984;47.404;18.836;2023-01-15T00:03:36;32.50;27.25;17.00
77692;PMS5003;66984;47.404;18.836;2023-01-15T00:04:40;32.00;27.00;17.00
77692;PMS5003;66984;47.404;18.836;2023-01-15T00:05:43;43.50;35.50;20.75
77692;PMS5003;66984;47.404;18.836;2023-01-15T00:06:47;47.50;38.00;23.00
77692;PMS5003;66984;47.404;18.836;2023-01-15T00:07:50;42.00;34.50;21.00
77692;PMS5003;66984;47.404;18.836;2023-01-15T00:08:54;39.00;32.00;20.00
77692;PMS5003;66984;47.404;18.836;2023-01-15T00:10:00;37.00;31.00;19.00
77692;PMS5003;66984;47.404;18.836;2023-01-15T00:11:06;40.00;33.00;19.33
77692;PMS5003;66984;47.404;18.836;2023-01-15T00:12:09;39.50;32.00;20.00
77692;PMS5003;66984;47.404;18.836;2023-01-15T00:13:12;34.00;28.25;18.00
77692;PMS5003;66984;47.404;18.836;2023-01-15T00:14:17;34.00;28.00;17.00
77692;PMS5003;66984;47.404;18.836;2023-01-15T00:15:22;31.75;26.75;17.00
77692;PMS5003;66984;47.404;18.836;2023-01-15T00:16:25;36.00;29.25;17.00
77692;PMS5003;66984;47.404;18.836;2023-01-15T00:17:29;33.00;27.75;16.00
77692;PMS5003;66984;47.404;18.836;2023-01-15T00:18:34;33.00;27.00;16.00
77692;PMS5003;66984;47.404;18.836;2023-01-15T00:19:37;29.25;26.00;16.00
77692;PMS5003;66984;47.404;18.836;2023-01-15T00:20:42;30.33;26.00;16.00
77692;PMS5003;66984;47.404;18.836;2023-01-15T00:21:46;33.00;27.75;17.25
77692;PMS5003;66984;47.404;18.836;2023-01-15T00:22:49;33.33;28.00;17.00
77692;PMS5003;66984;47.404;18.836;2023-01-15T00:23:54;38.33;32.00;19.00
77692;PMS5003;66984;47.404;18.836;2023-01-15T00:25:16;36.00;30.00;17.00
77692;PMS5003;66984;47.404;18.836;2023-01-15T00:26:38;34.00;28.50;17.00
77692;PMS5003;66984;47.404;18.836;2023-01-15T00:28:03;42.00;34.00;20.00
77692;PMS5003;66984;47.404;18.836;2023-01-15T00:29:06;37.00;30.00;18.00
77692;PMS5003;66984;47.404;18.836;2023-01-15T00:30:11;36.00;29.00;17.00
77692;PMS5003;66984;47.404;18.836;2023-01-15T00:31:16;35.00;29.00;17.00
77692;PMS5003;66984;47.404;18.836;2023-01-15T00:32:21;35.67;29.00;17.00
77692;PMS5003;66984;47.404;18.836;2023-01-15T00:33:25;37.00;29.00;17.00
77692;PMS5003;66984;47.404;18.836;2023-01-15T00:34:29;37.00;30.25;17.00
77692;PMS5003;66984;47.404;18.836;2023-01-15T00:35:33;35.00;29.00;17.00
77692;PMS5003;66984;47.404;18.836;2023-01-15T00:36:37;33.00;26.75;17.00
77692;PMS5003;66984;47.404;18.836;2023-01-15T00:37:42;31.00;26.00;17.00
77692;PMS5003;66984;47.404;18.836;2023-01-15T00:38:47;30.00;26.00;17.00
77692;PMS5003;66984;47.404;18.836;2023-01-15T00:39:50;35.00;29.00;17.00
77692;PMS5003;66984;47.404;18.836;2023-01-15T00:40:55;34.50;29.00;18.00
77692;PMS5003;66984;47.404;18.836;2023-01-15T00:41:59;31.33;26.00;17.00
77692;PMS5003;66984;47.404;18.836;2023-01-15T00:43:03;29.00;26.00;17.00
77692;PMS5003;66984;47.404;18.836;2023-01-15T00:44:06;29.25;24.50;16.00
77692;PMS5003;66984;47.404;18.836;2023-01-15T00:45:11;29.00;25.33;16.00
77692;PMS5003;66984;47.404;18.836;2023-01-15T00:46:15;29.00;24.75;16.00
77692;PMS5003;66984;47.404;18.836;2023-01-15T00:47:18;30.50;24.25;15.75
77692;PMS5003;66984;47.404;18.836;2023-01-15T00:48:22;32.00;25.00;16.00
77692;PMS5003;66984;47.404;18.836;2023-01-15T00:49:26;30.00;26.00;14.33
77692;PMS5003;66984;47.404;18.836;2023-01-15T00:50:30;32.50;27.00;16.25
77692;PMS5003;66984;47.404;18.836;2023-01-15T00:51:34;33.00;28.00;16.00
77692;PMS5003;66984;47.404;18.836;2023-01-15T00:52:39;32.00;26.00;16.00
77692;PMS5003;66984;47.404;18.836;2023-01-15T00:53:44;33.00;28.00;16.00
77692;PMS5003;66984;47.404;18.836;2023-01-15T00:54:48;34.50;28.25;17.00
77692;PMS5003;66984;47.404;18.836;2023-01-15T00:55:51;33.00;28.00;17.00
77692;PMS5003;66984;47.404;18.836;2023-01-15T00:56:55;29.25;26.00;17.00
77692;PMS5003;66984;47.404;18.836;2023-01-15T00:58:00;30.00;26.00;16.00
77692;PMS5003;66984;47.404;18.836;2023-01-15T00:59:04;34.25;27.75;17.00
77692;PMS5003;66984;47.404;18.836;2023-01-15T01:00:08;32.00;26.00;16.00
77692;PMS5003;66984;47.404;18.836;2023-01-15T01:01:14;29.00;25.00;15.00
77692;PMS5003;66984;47.404;18.836;2023-01-15T01:02:18;29.75;25.75;15.00
77692;PMS5003;66984;47.404;18.836;2023-01-15T01:03:22;31.33;26.00;15.00
77692;PMS5003;66984;47.404;18.836;2023-01-15T01:04:26;32.00;26.00;16.00
77692;PMS5003;66984;47.404;18.836;2023-01-15T01:05:31;28.00;24.00;16.00
77692;PMS5003;66984;47.404;18.836;2023-01-15T01:06:34;27.25;23.25;14.00
77692;PMS5003;66984;47.404;18.836;2023-01-15T01:07:38;49.50;38.50;22.75
77692;PMS5003;66984;47.404;18.836;2023-01-15T01:08:42;49.50;38.75;23.50
77692;PMS5003;66984;47.404;18.836;2023-01-15T01:09:48;46.00;36.00;22.00
77692;PMS5003;66984;47.404;18.836;2023-01-15T01:10:59;46.00;36.00;22.50
77692;PMS5003;66984;47.404;18.836;2023-01-15T01:12:07;46.00;37.00;22.00
77692;PMS5003;66984;47.404;18.836;2023-01-15T01:13:10;52.00;43.25;24.50
77692;PMS5003;66984;47.404;18.836;2023-01-15T01:14:16;72.83;67.00;36.83
77692;PMS5003;66984;47.404;18.836;2023-01-15T01:15:19;63.50;59.00;33.50
77692;PMS5003;66984;47.404;18.836;2023-01-15T01:17:37;34.00;28.50;17.00
77692;PMS5003;66984;47.404;18.836;2023-01-15T01:18:41;28.00;24.00;16.00
77692;PMS5003;66984;47.404;18.836;2023-01-15T01:19:45;36.25;30.00;18.50
77692;PMS5003;66984;47.404;18.836;2023-01-15T01:20:48;50.75;39.50;23.75
77692;PMS5003;66984;47.404;18.836;2023-01-15T01:21:52;51.50;42.25;23.75
77692;PMS5003;66984;47.404;18.836;2023-01-15T01:22:55;46.00;36.00;21.00
77692;PMS5003;66984;47.404;18.836;2023-01-15T01:23:59;38.25;31.00;17.00
77692;PMS5003;66984;47.404;18.836;2023-01-15T01:25:05;43.75;34.50;20.50
77692;PMS5003;66984;47.404;18.836;2023-01-15T01:26:10;39.50;32.00;18.50
77692;PMS5003;66984;47.404;18.836;2023-01-15T01:27:13;31.75;26.00;17.00
77692;PMS5003;66984;47.404;18.836;2023-01-15T01:28:19;27.67;25.00;15.67
77692;PMS5003;66984;47.404;18.836;2023-01-15T01:29:23;40.50;33.25;20.00
77692;PMS5003;66984;47.404;18.836;2023-01-15T01:30:28;38.00;31.67;18.67
77692;PMS5003;66984;47.404;18.836;2023-01-15T01:31:32;29.50;26.00;16.00
77692;PMS5003;66984;47.404;18.836;2023-01-15T01:32:37;26.50;23.25;14.25
77692;PMS5003;66984;47.404;18.836;2023-01-15T01:33:41;42.75;33.75;20.00
77692;PMS5003;66984;47.404;18.836;2023-01-15T01:34:45;45.25;35.75;20.00
77692;PMS5003;66984;47.404;18.836;2023-01-15T01:35:49;41.00;32.00;20.00
77692;PMS5003;66984;47.404;18.836;2023-01-15T01:36:53;40.50;33.00;19.75
77692;PMS5003;66984;47.404;18.836;2023-01-15T01:37:56;57.50;52.50;27.00
77692;PMS5003;66984;47.404;18.836;2023-01-15T01:39:00;52.50;43.25;24.75
77692;PMS5003;66984;47.404;18.836;2023-01-15T01:40:06;83.00;76.33;42.67
77692;PMS5003;66984;47.404;18.836;2023-01-15T01:41:10;110.00;103.50;56.00
77692;PMS5003;66984;47.404;18.836;2023-01-15T01:42:15;92.00;86.00;49.00
77692;PMS5003;66984;47.404;18.836;2023-01-15T01:43:21;115.50;107.50;60.50
77692;PMS5003;66984;47.404;18.836;2023-01-15T01:45:36;49.25;40.25;24.25
77692;PMS5003;66984;47.404;18.836;2023-01-15T01:46:40;44.25;35.00;20.75
77692;PMS5003;66984;47.404;18.836;2023-01-15T01:47:44;50.00;41.50;23.50
77692;PMS5003;66984;47.404;18.836;2023-01-15T01:48:49;66.33;61.00;34.33
77692;PMS5003;66984;47.404;18.836;2023-01-15T01:49:59;69.75;64.50;35.00
77692;PMS5003;66984;47.404;18.836;2023-01-15T01:51:06;56.67;50.00;28.00
77692;PMS5003;66984;47.404;18.836;2023-01-15T01:52:14;72.33;67.33;36.67
77692;PMS5003;66984;47.404;18.836;2023-01-15T01:53:24;92.00;86.50;49.00
77692;PMS5003;66984;47.404;18.836;2023-01-15T01:54:30;77.00;72.25;40.00
77692;PMS5003;66984;47.404;18.836;2023-01-15T01:55:37;59.25;56.50;32.00
77692;PMS5003;66984;47.404;18.836;2023-01-15T01:56:43;67.80;64.60;37.80
77692;PMS5003;66984;47.404;18.836;2023-01-15T01:57:49;57.00;51.67;28.67
77692;PMS5003;66984;47.404;18.836;2023-01-15T01:58:54;43.50;34.25;21.25
77692;PMS5003;66984;47.404;18.836;2023-01-15T01:59:59;42.00;34.00;20.00
77692;PMS5003;66984;47.404;18.836;2023-01-15T02:01:08;43.00;34.33;20.00
77692;PMS5003;66984;47.404;18.836;2023-01-15T02:02:11;36.00;30.75;17.50
77692;PMS5003;66984;47.404;18.836;2023-01-15T02:03:23;32.75;26.00;16.00
77692;PMS5003;66984;47.404;18.836;2023-01-15T02:04:33;30.00;25.00;15.00
77692;PMS5003;66984;47.404;18.836;2023-01-15T02:05:41;42.67;34.00;20.00
77692;PMS5003;66984;47.404;18.836;2023-01-15T02:06:48;38.75;31.50;19.00
77692;PMS5003;66984;47.404;18.836;2023-01-15T02:07:54;27.50;24.50;14.25
77692;PMS5003;66984;47.404;18.836;2023-01-15T02:08:57;22.00;20.00;13.00
77692;PMS5003;66984;47.404;18.836;2023-01-15T02:10:01;28.00;24.50;14.00
77692;PMS5003;66984;47.404;18.836;2023-01-15T02:11:05;32.25;26.75;16.25
77692;PMS5003;66984;47.404;18.836;2023-01-15T02:12:24;45.00;35.33;21.33
77692;PMS5003;66984;47.404;18.836;2023-01-15T02:13:35;47.50;37.25;22.00
77692;PMS5003;66984;47.404;18.836;2023-01-15T02:17:12;34.00;28.00;16.75
77692;PMS5003;66984;47.404;18.836;2023-01-15T02:18:25;29.25;25.75;16.00
77692;PMS5003;66984;47.404;18.836;2023-01-15T02:20:43;36.25;30.00;17.00
77692;PMS5003;66984;47.404;18.836;2023-01-15T02:21:55;34.00;28.00;17.00
77692;PMS5003;66984;47.404;18.836;2023-01-15T02:26:12;34.25;27.50;16.00
77692;PMS5003;66984;47.404;18.836;2023-01-15T02:27:28;36.00;28.50;16.00
77692;PMS5003;66984;47.404;18.836;2023-01-15T02:28:33;30.00;24.33;14.00
77692;PMS5003;66984;47.404;18.836;2023-01-15T02:29:44;25.00;21.00;13.00
77692;PMS5003;66984;47.404;18.836;2023-01-15T02:31:09;24.00;21.00;13.00
77692;PMS5003;66984;47.404;18.836;2023-01-15T02:33:48;44.25;34.75;20.75
77692;PMS5003;66984;47.404;18.836;2023-01-15T02:34:57;33.50;28.00;16.00
77692;PMS5003;66984;47.404;18.836;2023-01-15T02:36:06;34.67;29.00;16.67
77692;PMS5003;66984;47.404;18.836;2023-01-15T02:37:15;30.75;25.25;16.00
77692;PMS5003;66984;47.404;18.836;2023-01-15T02:38:28;33.33;27.67;16.00
77692;PMS5003;66984;47.404;18.836;2023-01-15T02:39:36;33.25;28.25;17.00
77692;PMS5003;66984;47.404;18.836;2023-01-15T02:40:44;30.50;26.00;16.00
77692;PMS5003;66984;47.404;18.836;2023-01-15T02:41:51;35.67;29.00;17.00
77692;PMS5003;66984;47.404;18.836;2023-01-15T02:42:58;46.50;37.00;22.50
77692;PMS5003;66984;47.404;18.836;2023-01-15T02:44:03;39.33;31.67;20.00
77692;PMS5003;66984;47.404;18.836;2023-01-15T02:45:09;31.00;26.00;15.00
77692;PMS5003;66984;47.404;18.836;2023-01-15T02:46:15;28.25;25.00;15.00
77692;PMS5003;66984;47.404;18.836;2023-01-15T02:47:24;37.00;31.00;17.00
77692;PMS5003;66984;47.404;18.836;2023-01-15T02:48:30;30.75;26.50;16.25
77692;PMS5003;66984;47.404;18.836;2023-01-15T02:49:39;28.00;25.00;14.00
77692;PMS5003;66984;47.404;18.836;2023-01-15T02:50:48;35.67;28.00;16.67
77692;PMS5003;66984;47.404;18.836;2023-01-15T02:52:07;33.67;28.00;17.00
77692;PMS5003;66984;47.404;18.836;2023-01-15T02:53:18;35.75;28.75;16.50
77692;PMS5003;66984;47.404;18.836;2023-01-15T02:54:27;33.00;27.67;17.00
77692;PMS5003;66984;47.404;18.836;2023-01-15T02:55:43;26.67;23.00;14.00
77692;PMS5003;66984;47.404;18.836;2023-01-15T02:56:53;27.00;23.00;13.00
77692;PMS5003;66984;47.404;18.836;2023-01-15T02:58:06;29.00;25.00;15.00
77692;PMS5003;66984;47.404;18.836;2023-01-15T02:59:22;59.50;55.00;29.50
77692;PMS5003;66984;47.404;18.836;2023-01-15T03:00:32;49.00;38.50;24.00
77692;PMS5003;66984;47.404;18.836;2023-01-15T03:01:43;37.50;30.50;18.75
77692;PMS5003;66984;47.404;18.836;2023-01-15T03:02:55;31.00;26.33;16.00
77692;PMS5003;66984;47.404;18.836;2023-01-15T03:04:26;28.00;25.00;15.67
77692;PMS5003;66984;47.404;18.836;2023-01-15T03:05:41;32.33;26.00;17.00
77692;PMS5003;66984;47.404;18.836;2023-01-15T03:07:02;28.75;25.00;16.00
77692;PMS5003;66984;47.404;18.836;2023-01-15T03:08:13;36.00;29.00;17.00
77692;PMS5003;66984;47.404;18.836;2023-01-15T03:09:16;35.00;28.00;17.00
77692;PMS5003;66984;47.404;18.836;2023-01-15T03:12:23;30.00;26.00;14.00
77692;PMS5003;66984;47.404;18.836;2023-01-15T03:13:36;25.75;23.00;14.00
77692;PMS5003;66984;47.404;18.836;2023-01-15T03:14:55;29.75;24.75;14.75
77692;PMS5003;66984;47.404;18.836;2023-01-15T03:16:21;30.75;25.00;15.00
77692;PMS5003;66984;47.404;18.836;2023-01-15T03:17:38;30.00;25.00;15.00
77692;PMS5003;66984;47.404;18.836;2023-01-15T03:20:31;23.00;22.00;12.00
77692;PMS5003;66984;47.404;18.836;2023-01-15T03:21:49;32.00;26.00;16.00
77692;PMS5003;66984;47.404;18.836;2023-01-15T03:23:05;28.25;24.50;16.00
77692;PMS5003;66984;47.404;18.836;2023-01-15T03:24:17;26.50;23.00;14.00
77692;PMS5003;66984;47.404;18.836;2023-01-15T03:25:39;23.25;22.00;14.00
77692;PMS5003;66984;47.404;18.836;2023-01-15T03:26:48;22.00;20.25;11.00
77692;PMS5003;66984;47.404;18.836;2023-01-15T03:27:53;19.33;19.00;10.00
77692;PMS5003;66984;47.404;18.836;2023-01-15T03:29:03;49.33;40.33;23.67
77692;PMS5003;66984;47.404;18.836;2023-01-15T03:30:12;44.00;35.50;21.00
77692;PMS5003;66984;47.404;18.836;2023-01-15T03:31:17;30.25;26.00;15.50
77692;PMS5003;66984;47.404;18.836;2023-01-15T03:32:21;25.00;23.00;13.00
77692;PMS5003;66984;47.404;18.836;2023-01-15T03:33:25;22.00;21.00;12.00
77692;PMS5003;66984;47.404;18.836;2023-01-15T03:34:39;23.00;21.33;13.00
77692;PMS5003;66984;47.404;18.836;2023-01-15T03:35:50;38.25;31.25;18.25
77692;PMS5003;66984;47.404;18.836;2023-01-15T03:36:59;36.00;29.00;17.00
77692;PMS5003;66984;47.404;18.836;2023-01-15T03:38:03;27.00;23.75;14.00
77692;PMS5003;66984;47.404;18.836;2023-01-15T03:39:07;22.00;22.00;12.00
77692;PMS5003;66984;47.404;18.836;2023-01-15T03:40:11;30.00;25.67;15.33
77692;PMS5003;66984;47.404;18.836;2023-01-15T03:41:21;45.75;36.25;22.50
77692;PMS5003;66984;47.404;18.836;2023-01-15T03:42:48;46.50;37.00;22.50
77692;PMS5003;66984;47.404;18.836;2023-01-15T03:45:35;35.25;27.50;16.00
77692;PMS5003;66984;47.404;18.836;2023-01-15T03:51:03;23.25;22.00;13.00
77692;PMS5003;66984;47.404;18.836;2023-01-15T03:52:25;33.00;26.75;16.00
77692;PMS5003;66984;47.404;18.836;2023-01-15T03:53:42;38.33;31.67;19.00
77692;PMS5003;66984;47.404;18.836;2023-01-15T03:55:03;37.75;31.25;19.00
77692;PMS5003;66984;47.404;18.836;2023-01-15T03:58:51;39.00;32.00;19.00
77692;PMS5003;66984;47.404;18.836;2023-01-15T04:00:06;32.00;25.50;15.25
77692;PMS5003;66984;47.404;18.836;2023-01-15T04:01:17;34.33;29.00;16.67
77692;PMS5003;66984;47.404;18.836;2023-01-15T04:02:23;27.00;24.00;14.00
77692;PMS5003;66984;47.404;18.836;2023-01-15T04:03:28;27.00;24.00;14.00
77692;PMS5003;66984;47.404;18.836;2023-01-15T04:04:35;26.00;23.00;14.00
77692;PMS5003;66984;47.404;18.836;2023-01-15T04:05:42;31.67;26.00;16.00
77692;PMS5003;66984;47.404;18.836;2023-01-15T04:06:47;33.00;26.00;16.00
77692;PMS5003;66984;47.404;18.836;2023-01-15T04:07:51;31.75;26.00;16.00
77692;PMS5003;66984;47.404;18.836;2023-01-15T04:08:57;25.67;23.00;13.00
77692;PMS5003;66984;47.404;18.836;2023-01-15T04:10:01;25.00;22.75;12.00
77692;PMS5003;66984;47.404;18.836;2023-01-15T04:11:05;29.00;25.00;14.00
77692;PMS5003;66984;47.404;18.836;2023-01-15T04:12:10;25.00;22.67;13.00
77692;PMS5003;66984;47.404;18.836;2023-01-15T04:13:13;22.25;20.75;11.75
77692;PMS5003;66984;47.404;18.836;2023-01-15T04:14:17;22.67;21.33;11.00
77692;PMS5003;66984;47.404;18.836;2023-01-15T04:15:20;28.50;24.75;14.00
77692;PMS5003;66984;47.404;18.836;2023-01-15T04:16:25;28.00;25.00;14.00
77692;PMS5003;66984;47.404;18.836;2023-01-15T04:17:33;25.00;22.00;14.00
77692;PMS5003;66984;47.404;18.836;2023-01-15T04:18:36;24.75;22.00;14.00
77692;PMS5003;66984;47.404;18.836;2023-01-15T04:19:40;24.00;22.00;12.00
77692;PMS5003;66984;47.404;18.836;2023-01-15T04:20:46;22.67;21.00;11.00
77692;PMS5003;66984;47.404;18.836;2023-01-15T04:21:52;22.75;21.50;11.25
77692;PMS5003;66984;47.404;18.836;2023-01-15T04:22:55;28.00;24.25;13.00
77692;PMS5003;66984;47.404;18.836;2023-01-15T04:23:59;29.00;24.00;14.00
77692;PMS5003;66984;47.404;18.836;2023-01-15T04:25:04;24.33;21.00;13.00
77692;PMS5003;66984;47.404;18.836;2023-01-15T04:26:10;24.67;22.00;12.00
77692;PMS5003;66984;47.404;18.836;2023-01-15T04:27:15;21.33;20.00;11.00
77692;PMS5003;66984;47.404;18.836;2023-01-15T04:28:19;20.00;20.00;11.00
77692;PMS5003;66984;47.404;18.836;2023-01-15T04:29:23;20.00;19.50;11.00
77692;PMS5003;66984;47.404;18.836;2023-01-15T04:30:29;21.50;20.00;12.00
77692;PMS5003;66984;47.404;18.836;2023-01-15T04:31:33;26.75;24.00;14.00
77692;PMS5003;66984;47.404;18.836;2023-01-15T04:32:39;25.00;23.00;12.00
77692;PMS5003;66984;47.404;18.836;2023-01-15T04:33:43;22.00;20.00;11.00
77692;PMS5003;66984;47.404;18.836;2023-01-15T04:34:47;23.33;20.00;10.00
77692;PMS5003;66984;47.404;18.836;2023-01-15T04:35:50;23.67;22.00;11.00
77692;PMS5003;66984;47.404;18.836;2023-01-15T04:36:54;31.00;26.00;14.00
77692;PMS5003;66984;47.404;18.836;2023-01-15T04:37:59;35.00;29.00;16.00
77692;PMS5003;66984;47.404;18.836;2023-01-15T04:39:03;42.25;34.00;20.00
77692;PMS5003;66984;47.404;18.836;2023-01-15T04:40:08;50.00;40.50;23.50
77692;PMS5003;66984;47.404;18.836;2023-01-15T04:41:12;50.75;39.75;24.00
77692;PMS5003;66984;47.404;18.836;2023-01-15T04:42:34;38.25;31.25;18.50
77692;PMS5003;66984;47.404;18.836;2023-01-15T04:43:56;25.25;22.50;13.25
77692;PMS5003;66984;47.404;18.836;2023-01-15T04:45:08;41.50;33.50;20.75
77692;PMS5003;66984;47.404;18.836;2023-01-15T04:46:12;50.00;41.00;24.00
77692;PMS5003;66984;47.404;18.836;2023-01-15T04:47:16;45.25;36.50;22.00
77692;PMS5003;66984;47.404;18.836;2023-01-15T04:48:21;39.33;32.33;20.00
77692;PMS5003;66984;47.404;18.836;2023-01-15T04:49:25;41.50;33.25;20.00
77692;PMS5003;66984;47.404;18.836;2023-01-15T04:50:29;44.75;36.00;22.50
77692;PMS5003;66984;47.404;18.836;2023-01-15T04:51:33;37.00;31.00;19.33
77692;PMS5003;66984;47.404;18.836;2023-01-15T04:52:38;34.00;28.00;17.00
77692;PMS5003;66984;47.404;18.836;2023-01-15T04:53:41;30.75;25.75;16.00
77692;PMS5003;66984;47.404;18.836;2023-01-15T04:54:46;29.00;26.00;16.00
77692;PMS5003;66984;47.404;18.836;2023-01-15T04:55:50;37.75;31.50;19.75
77692;PMS5003;66984;47.404;18.836;2023-01-15T04:56:53;42.25;34.00;21.25
77692;PMS5003;66984;47.404;18.836;2023-01-15T04:57:57;35.25;29.50;17.25
77692;PMS5003;66984;47.404;18.836;2023-01-15T04:59:01;26.00;24.00;14.50
77692;PMS5003;66984;47.404;18.836;2023-01-15T05:00:05;24.75;22.50;14.00
77692;PMS5003;66984;47.404;18.836;2023-01-15T05:01:13;27.00;23.00;14.00
77692;PMS5003;66984;47.404;18.836;2023-01-15T05:02:18;30.25;25.50;15.75
77692;PMS5003;66984;47.404;18.836;2023-01-15T05:03:21;23.50;22.00;14.00
77692;PMS5003;66984;47.404;18.836;2023-01-15T05:04:25;29.00;24.75;14.75
77692;PMS5003;66984;47.404;18.836;2023-01-15T05:05:28;46.50;37.50;22.00
77692;PMS5003;66984;47.404;18.836;2023-01-15T05:06:35;43.00;35.33;20.67
77692;PMS5003;66984;47.404;18.836;2023-01-15T05:07:39;52.75;45.50;25.50
77692;PMS5003;66984;47.404;18.836;2023-01-15T05:08:43;46.00;37.00;22.75
77692;PMS5003;66984;47.404;18.836;2023-01-15T05:09:47;36.50;29.75;17.75
77692;PMS5003;66984;47.404;18.836;2023-01-15T05:10:53;33.25;26.00;15.50
77692;PMS5003;66984;47.404;18.836;2023-01-15T05:11:57;31.00;26.00;14.50
77692;PMS5003;66984;47.404;18.836;2023-01-15T05:13:01;26.00;23.00;14.00
77692;PMS5003;66984;47.404;18.836;2023-01-15T05:14:05;23.00;20.75;13.50
77692;PMS5003;66984;47.404;18.836;2023-01-15T05:15:10;21.00;19.00;12.00
77692;PMS5003;66984;47.404;18.836;2023-01-15T05:16:19;26.00;21.50;11.00
77692;PMS5003;66984;47.404;18.836;2023-01-15T05:17:26;32.25;26.00;15.75
77692;PMS5003;66984;47.404;18.836;2023-01-15T05:18:31;33.00;28.00;17.00
77692;PMS5003;66984;47.404;18.836;2023-01-15T05:19:35;28.00;24.00;16.00
77692;PMS5003;66984;47.404;18.836;2023-01-15T05:20:41;31.00;26.00;15.00
77692;PMS5003;66984;47.404;18.836;2023-01-15T05:21:44;27.67;24.67;14.00
77692;PMS5003;66984;47.404;18.836;2023-01-15T05:22:49;29.33;24.00;14.00
77692;PMS5003;66984;47.404;18.836;2023-01-15T05:23:53;31.33;26.00;14.00
77692;PMS5003;66984;47.404;18.836;2023-01-15T05:24:59;28.25;24.00;14.00
77692;PMS5003;66984;47.404;18.836;2023-01-15T05:26:02;25.75;23.00;14.00
77692;PMS5003;66984;47.404;18.836;2023-01-15T05:27:07;26.50;23.25;14.00
77692;PMS5003;66984;47.404;18.836;2023-01-15T05:28:11;27.33;24.33;14.67
77692;PMS5003;66984;47.404;18.836;2023-01-15T05:29:16;29.50;25.25;16.00
77692;PMS5003;66984;47.404;18.836;2023-01-15T05:30:20;40.00;32.00;19.00
77692;PMS5003;66984;47.404;18.836;2023-01-15T05:31:25;37.00;29.00;17.00
77692;PMS5003;66984;47.404;18.836;2023-01-15T05:32:31;32.00;26.00;16.00
77692;PMS5003;66984;47.404;18.836;2023-01-15T05:33:37;26.33;23.00;14.00
77692;PMS5003;66984;47.404;18.836;2023-01-15T05:34:44;25.50;24.00;14.00
77692;PMS5003;66984;47.404;18.836;2023-01-15T05:35:51;24.00;23.00;14.00
77692;PMS5003;66984;47.404;18.836;2023-01-15T05:36:55;29.00;24.33;16.00
77692;PMS5003;66984;47.404;18.836;2023-01-15T05:37:59;25.50;23.00;15.00
77692;PMS5003;66984;47.404;18.836;2023-01-15T05:39:03;23.00;22.00;14.00
77692;PMS5003;66984;47.404;18.836;2023-01-15T05:40:11;23.00;20.00;14.00
77692;PMS5003;66984;47.404;18.836;2023-01-15T05:41:17;21.33;21.00;12.00
77692;PMS5003;66984;47.404;18.836;2023-01-15T05:42:45;28.00;23.00;14.00
77692;PMS5003;66984;47.404;18.836;2023-01-15T05:43:48;22.00;22.00;11.25
77692;PMS5003;66984;47.404;18.836;2023-01-15T05:44:53;20.00;20.00;8.00
77692;PMS5003;66984;47.404;18.836;2023-01-15T05:46:00;17.67;17.33;8.00
77692;PMS5003;66984;47.404;18.836;2023-01-15T05:47:05;18.00;17.75;8.00
77692;PMS5003;66984;47.404;18.836;2023-01-15T05:48:09;22.00;21.00;12.33
77692;PMS5003;66984;47.404;18.836;2023-01-15T05:49:15;28.00;26.00;15.00
77692;PMS5003;66984;47.404;18.836;2023-01-15T05:50:22;23.00;22.33;14.00
77692;PMS5003;66984;47.404;18.836;2023-01-15T05:51:25;23.00;22.00;13.00
77692;PMS5003;66984;47.404;18.836;2023-01-15T05:52:31;20.00;19.00;10.00
77692;PMS5003;66984;47.404;18.836;2023-01-15T05:53:34;20.00;17.00;8.00
77692;PMS5003;66984;47.404;18.836;2023-01-15T05:54:40;20.00;18.25;9.00
77692;PMS5003;66984;47.404;18.836;2023-01-15T05:55:45;23.00;22.00;12.00
77692;PMS5003;66984;47.404;18.836;2023-01-15T05:56:50;21.00;20.00;11.00
77692;PMS5003;66984;47.404;18.836;2023-01-15T05:57:55;19.00;17.00;8.00
77692;PMS5003;66984;47.404;18.836;2023-01-15T05:59:00;18.00;17.00;8.00
77692;PMS5003;66984;47.404;18.836;2023-01-15T06:00:04;19.00;19.00;8.25
77692;PMS5003;66984;47.404;18.836;2023-01-15T06:01:10;22.00;21.50;10.75
77692;PMS5003;66984;47.404;18.836;2023-01-15T06:02:13;23.00;22.00;11.00
77692;PMS5003;66984;47.404;18.836;2023-01-15T06:03:17;22.50;20.00;11.00
77692;PMS5003;66984;47.404;18.836;2023-01-15T06:04:22;23.33;21.33;12.00
77692;PMS5003;66984;47.404;18.836;2023-01-15T06:05:27;25.25;22.00;13.00
77692;PMS5003;66984;47.404;18.836;2023-01-15T06:06:31;27.75;23.75;14.25
77692;PMS5003;66984;47.404;18.836;2023-01-15T06:07:35;28.00;24.00;14.00
77692;PMS5003;66984;47.404;18.836;2023-01-15T06:08:39;28.00;24.00;14.00
77692;PMS5003;66984;47.404;18.836;2023-01-15T06:09:44;26.00;23.00;14.00
77692;PMS5003;66984;47.404;18.836;2023-01-15T06:10:49;29.00;25.00;14.00
77692;PMS5003;66984;47.404;18.836;2023-01-15T06:11:54;23.00;21.00;13.00
77692;PMS5003;66984;47.404;18.836;2023-01-15T06:12:58;23.00;20.25;13.00
77692;PMS5003;66984;47.404;18.836;2023-01-15T06:14:01;20.00;19.25;12.00
77692;PMS5003;66984;47.404;18.836;2023-01-15T06:15:06;22.50;19.25;11.00
77692;PMS5003;66984;47.404;18.836;2023-01-15T06:16:10;22.00;20.00;11.00
77692;PMS5003;66984;47.404;18.836;2023-01-15T06:17:14;23.00;21.67;11.00
77692;PMS5003;66984;47.404;18.836;2023-01-15T06:18:18;23.50;23.00;12.50
77692;PMS5003;66984;47.404;18.836;2023-01-15T06:19:21;21.50;19.75;12.00
77692;PMS5003;66984;47.404;18.836;2023-01-15T06:20:24;18.00;17.00;11.00
77692;PMS5003;66984;47.404;18.836;2023-01-15T06:21:28;21.67;20.00;12.00
77692;PMS5003;66984;47.404;18.836;2023-01-15T06:22:33;27.00;23.75;14.25
77692;PMS5003;66984;47.404;18.836;2023-01-15T06:23:37;41.50;34.00;20.00
77692;PMS5003;66984;47.404;18.836;2023-01-15T06:24:41;34.00;28.50;17.00
77692;PMS5003;66984;47.404;18.836;2023-01-15T06:25:44;21.50;21.50;13.00
77692;PMS5003;66984;47.404;18.836;2023-01-15T06:26:49;25.67;23.00;13.67
77692;PMS5003;66984;47.404;18.836;2023-01-15T06:27:53;23.00;21.00;13.00
77692;PMS5003;66984;47.404;18.836;2023-01-15T06:28:56;23.00;20.00;12.00
77692;PMS5003;66984;47.404;18.836;2023-01-15T06:30:01;26.00;23.00;12.00
77692;PMS5003;66984;47.404;18.836;2023-01-15T06:31:06;29.75;25.75;14.00